sensor_id;sensor_type;location;lat;lon;timestamp;P1;durP1;ratioP1;P2;durP2;ratioP2
40453;SDS011;26160;51.858;4.398;2023-05-08T00:04:57;122.57;;;81.43;;
40453;SDS011;26160;51.858;4.398;2023-05-08T00:07:30;123.43;;;80.97;;
40453;SDS011;26160;51.858;4.398;2023-05-08T00:10:05;100.97;;;76.55;;
40453;SDS011;26160;51.858;4.398;2023-05-08T00:12:32;116.07;;;80.22;;
40453;SDS011;26160;51.858;4.398;2023-05-08T00:15:05;120.35;;;82.93;;
40453;SDS011;26160;51.858;4.398;2023-05-08T00:17:32;119.95;;;80.60;;
40453;SDS011;26160;51.858;4.398;2023-05-08T00:20:01;116.65;;;78.85;;
40453;SDS011;26160;51.858;4.398;2023-05-08T00:22:28;109.05;;;76.32;;
40453;SDS011;26160;51.858;4.398;2023-05-08T00:24:59;127.60;;;83.32;;
40453;SDS011;26160;51.858;4.398;2023-05-08T00:27:28;111.10;;;77.20;;
40453;SDS011;26160;51.858;4.398;2023-05-08T00:33:01;125.72;;;85.32;;
40453;SDS011;26160;51.858;4.398;2023-05-08T00:35:39;122.53;;;80.82;;
40453;SDS011;26160;51.858;4.398;2023-05-08T00:44:09;121.25;;;82.15;;
40453;SDS011;26160;51.858;4.398;2023-05-08T00:52:03;104.25;;;74.18;;
40453;SDS011;26160;51.858;4.398;2023-05-08T00:54:44;115.88;;;79.20;;
40453;SDS011;26160;51.858;4.398;2023-05-08T00:57:11;129.10;;;83.65;;
40453;SDS011;26160;51.858;4.398;2023-05-08T00:59:38;111.88;;;78.53;;
40453;SDS011;26160;51.858;4.398;2023-05-08T01:02:10;107.22;;;75.95;;
40453;SDS011;26160;51.858;4.398;2023-05-08T01:05:00;101.53;;;71.38;;
40453;SDS011;26160;51.858;4.398;2023-05-08T01:07:47;111.82;;;77.13;;
40453;SDS011;26160;51.858;4.398;2023-05-08T01:10:22;122.90;;;82.45;;
40453;SDS011;26160;51.858;4.398;2023-05-08T01:13:12;114.45;;;76.82;;
40453;SDS011;26160;51.858;4.398;2023-05-08T01:21:42;107.70;;;76.72;;
40453;SDS011;26160;51.858;4.398;2023-05-08T01:27:17;142.18;;;92.55;;
40453;SDS011;26160;51.858;4.398;2023-05-08T01:30:19;125.68;;;86.88;;
40453;SDS011;26160;51.858;4.398;2023-05-08T01:56:55;166.30;;;106.75;;
40453;SDS011;26160;51.858;4.398;2023-05-08T02:02:29;186.73;;;115.57;;
40453;SDS011;26160;51.858;4.398;2023-05-08T02:05:03;174.13;;;110.70;;
40453;SDS011;26160;51.858;4.398;2023-05-08T02:07:50;200.32;;;119.65;;
40453;SDS011;26160;51.858;4.398;2023-05-08T02:13:19;197.77;;;121.97;;
40453;SDS011;26160;51.858;4.398;2023-05-08T02:15:47;209.73;;;123.18;;
40453;SDS011;26160;51.858;4.398;2023-05-08T02:18:22;211.45;;;124.70;;
40453;SDS011;26160;51.858;4.398;2023-05-08T02:20:58;210.32;;;124.03;;
40453;SDS011;26160;51.858;4.398;2023-05-08T02:23:33;196.38;;;115.20;;
40453;SDS011;26160;51.858;4.398;2023-05-08T02:36:50;234.88;;;108.93;;
40453;SDS011;26160;51.858;4.398;2023-05-08T02:39:19;261.48;;;110.93;;
40453;SDS011;26160;51.858;4.398;2023-05-08T02:44:39;166.68;;;88.30;;
40453;SDS011;26160;51.858;4.398;2023-05-08T02:52:26;150.88;;;79.93;;
40453;SDS011;26160;51.858;4.398;2023-05-08T03:01:00;195.45;;;95.00;;
40453;SDS011;26160;51.858;4.398;2023-05-08T03:03:42;184.15;;;91.43;;
40453;SDS011;26160;51.858;4.398;2023-05-08T03:06:15;182.35;;;90.25;;
40453;SDS011;26160;51.858;4.398;2023-05-08T03:08:44;179.05;;;90.05;;
40453;SDS011;26160;51.858;4.398;2023-05-08T03:11:27;191.57;;;93.45;;
40453;SDS011;26160;51.858;4.398;2023-05-08T03:17:06;269.52;;;105.50;;
40453;SDS011;26160;51.858;4.398;2023-05-08T03:19:51;202.48;;;92.82;;
40453;SDS011;26160;51.858;4.398;2023-05-08T03:22:25;227.13;;;98.25;;
40453;SDS011;26160;51.858;4.398;2023-05-08T03:24:55;179.88;;;88.15;;
40453;SDS011;26160;51.858;4.398;2023-05-08T03:27:40;187.60;;;88.85;;
40453;SDS011;26160;51.858;4.398;2023-05-08T03:30:13;196.32;;;88.75;;
40453;SDS011;26160;51.858;4.398;2023-05-08T03:32:41;189.80;;;88.25;;
40453;SDS011;26160;51.858;4.398;2023-05-08T03:35:10;172.77;;;86.95;;
40453;SDS011;26160;51.858;4.398;2023-05-08T03:37:38;168.20;;;85.50;;
40453;SDS011;26160;51.858;4.398;2023-05-08T03:40:05;152.48;;;78.05;;
40453;SDS011;26160;51.858;4.398;2023-05-08T03:42:34;178.05;;;84.05;;
40453;SDS011;26160;51.858;4.398;2023-05-08T03:45:03;170.63;;;82.88;;
40453;SDS011;26160;51.858;4.398;2023-05-08T03:47:30;170.63;;;80.43;;
40453;SDS011;26160;51.858;4.398;2023-05-08T03:49:57;169.02;;;79.90;;
40453;SDS011;26160;51.858;4.398;2023-05-08T03:52:24;179.88;;;79.07;;
40453;SDS011;26160;51.858;4.398;2023-05-08T03:54:51;159.98;;;74.18;;
40453;SDS011;26160;51.858;4.398;2023-05-08T03:57:17;156.73;;;71.13;;
40453;SDS011;26160;51.858;4.398;2023-05-08T03:59:50;156.57;;;70.95;;
40453;SDS011;26160;51.858;4.398;2023-05-08T04:03:43;156.00;;;68.85;;
40453;SDS011;26160;51.858;4.398;2023-05-08T04:05:56;152.27;;;70.10;;
40453;SDS011;26160;51.858;4.398;2023-05-08T04:08:38;150.18;;;69.72;;
40453;SDS011;26160;51.858;4.398;2023-05-08T04:11:11;142.32;;;68.55;;
40453;SDS011;26160;51.858;4.398;2023-05-08T04:13:48;157.85;;;72.38;;
40453;SDS011;26160;51.858;4.398;2023-05-08T04:16:20;148.05;;;67.13;;
40453;SDS011;26160;51.858;4.398;2023-05-08T04:18:57;145.63;;;68.95;;
40453;SDS011;26160;51.858;4.398;2023-05-08T04:21:27;139.90;;;66.25;;
40453;SDS011;26160;51.858;4.398;2023-05-08T04:23:56;169.68;;;71.68;;
40453;SDS011;26160;51.858;4.398;2023-05-08T04:26:36;166.23;;;70.40;;
40453;SDS011;26160;51.858;4.398;2023-05-08T04:29:10;177.43;;;72.18;;
40453;SDS011;26160;51.858;4.398;2023-05-08T04:34:06;162.07;;;69.65;;
40453;SDS011;26160;51.858;4.398;2023-05-08T04:36:34;141.82;;;63.05;;
40453;SDS011;26160;51.858;4.398;2023-05-08T04:39:00;135.30;;;62.58;;
40453;SDS011;26160;51.858;4.398;2023-05-08T04:41:28;132.93;;;64.25;;
40453;SDS011;26160;51.858;4.398;2023-05-08T04:44:01;152.45;;;65.72;;
40453;SDS011;26160;51.858;4.398;2023-05-08T04:46:28;148.27;;;63.83;;
40453;SDS011;26160;51.858;4.398;2023-05-08T04:51:52;143.77;;;57.60;;
40453;SDS011;26160;51.858;4.398;2023-05-08T04:54:18;149.75;;;58.58;;
40453;SDS011;26160;51.858;4.398;2023-05-08T04:56:44;97.22;;;46.38;;
40453;SDS011;26160;51.858;4.398;2023-05-08T04:59:28;103.82;;;45.25;;
40453;SDS011;26160;51.858;4.398;2023-05-08T05:01:55;97.70;;;43.08;;
40453;SDS011;26160;51.858;4.398;2023-05-08T05:04:22;87.50;;;41.67;;
40453;SDS011;26160;51.858;4.398;2023-05-08T05:18:26;93.55;;;45.33;;
40453;SDS011;26160;51.858;4.398;2023-05-08T05:20:56;114.43;;;50.83;;
40453;SDS011;26160;51.858;4.398;2023-05-08T05:23:25;88.35;;;43.05;;
40453;SDS011;26160;51.858;4.398;2023-05-08T05:25:51;93.55;;;47.63;;
40453;SDS011;26160;51.858;4.398;2023-05-08T05:28:18;113.85;;;49.53;;
40453;SDS011;26160;51.858;4.398;2023-05-08T05:31:02;112.38;;;51.53;;
40453;SDS011;26160;51.858;4.398;2023-05-08T05:33:29;102.88;;;49.35;;
40453;SDS011;26160;51.858;4.398;2023-05-08T05:35:55;97.25;;;49.15;;
40453;SDS011;26160;51.858;4.398;2023-05-08T05:38:21;103.30;;;51.33;;
40453;SDS011;26160;51.858;4.398;2023-05-08T05:40:58;146.73;;;60.33;;
40453;SDS011;26160;51.858;4.398;2023-05-08T05:43:25;105.60;;;49.13;;
40453;SDS011;26160;51.858;4.398;2023-05-08T05:45:51;98.75;;;48.15;;
40453;SDS011;26160;51.858;4.398;2023-05-08T05:48:17;111.88;;;49.97;;
40453;SDS011;26160;51.858;4.398;2023-05-08T05:50:43;115.57;;;52.50;;
40453;SDS011;26160;51.858;4.398;2023-05-08T05:53:16;94.50;;;49.15;;
40453;SDS011;26160;51.858;4.398;2023-05-08T05:55:42;102.85;;;50.85;;
40453;SDS011;26160;51.858;4.398;2023-05-08T05:58:09;96.13;;;49.58;;
40453;SDS011;26160;51.858;4.398;2023-05-08T06:00:35;112.80;;;53.72;;
40453;SDS011;26160;51.858;4.398;2023-05-08T06:03:02;118.82;;;56.95;;
40453;SDS011;26160;51.858;4.398;2023-05-08T06:05:30;128.63;;;59.00;;
40453;SDS011;26160;51.858;4.398;2023-05-08T06:07:57;136.35;;;63.88;;
40453;SDS011;26160;51.858;4.398;2023-05-08T06:10:23;151.50;;;63.72;;
40453;SDS011;26160;51.858;4.398;2023-05-08T06:12:50;148.73;;;65.72;;
40453;SDS011;26160;51.858;4.398;2023-05-08T06:15:16;155.13;;;65.05;;
40453;SDS011;26160;51.858;4.398;2023-05-08T06:17:42;157.93;;;63.90;;
40453;SDS011;26160;51.858;4.398;2023-05-08T06:20:14;149.75;;;62.95;;
40453;SDS011;26160;51.858;4.398;2023-05-08T06:22:42;171.40;;;65.32;;
40453;SDS011;26160;51.858;4.398;2023-05-08T06:25:09;138.32;;;63.45;;
40453;SDS011;26160;51.858;4.398;2023-05-08T06:27:35;135.93;;;61.78;;
40453;SDS011;26160;51.858;4.398;2023-05-08T06:30:02;120.25;;;57.28;;
40453;SDS011;26160;51.858;4.398;2023-05-08T06:32:32;137.00;;;57.75;;
40453;SDS011;26160;51.858;4.398;2023-05-08T06:34:58;127.53;;;60.53;;
40453;SDS011;26160;51.858;4.398;2023-05-08T06:37:24;150.35;;;64.10;;
40453;SDS011;26160;51.858;4.398;2023-05-08T06:39:50;129.82;;;60.55;;
40453;SDS011;26160;51.858;4.398;2023-05-08T06:42:17;155.85;;;62.35;;
40453;SDS011;26160;51.858;4.398;2023-05-08T06:44:43;133.52;;;58.95;;
40453;SDS011;26160;51.858;4.398;2023-05-08T06:47:09;101.03;;;53.58;;
40453;SDS011;26160;51.858;4.398;2023-05-08T07:53:53;99.45;;;43.35;;
40453;SDS011;26160;51.858;4.398;2023-05-08T07:56:20;80.35;;;39.08;;
40453;SDS011;26160;51.858;4.398;2023-05-08T08:12:17;61.70;;;31.92;;
40453;SDS011;26160;51.858;4.398;2023-05-08T08:25:08;42.30;;;26.55;;
40453;SDS011;26160;51.858;4.398;2023-05-08T08:30:05;41.20;;;26.60;;
40453;SDS011;26160;51.858;4.398;2023-05-08T09:05:11;51.20;;;32.17;;
40453;SDS011;26160;51.858;4.398;2023-05-08T09:07:37;49.60;;;32.92;;
40453;SDS011;26160;51.858;4.398;2023-05-08T09:12:49;46.00;;;30.20;;
40453;SDS011;26160;51.858;4.398;2023-05-08T09:15:20;49.28;;;32.35;;
40453;SDS011;26160;51.858;4.398;2023-05-08T09:18:03;48.90;;;31.95;;
40453;SDS011;26160;51.858;4.398;2023-05-08T09:20:30;53.83;;;35.80;;
40453;SDS011;26160;51.858;4.398;2023-05-08T09:22:58;53.67;;;35.08;;
40453;SDS011;26160;51.858;4.398;2023-05-08T09:25:39;53.63;;;34.78;;
40453;SDS011;26160;51.858;4.398;2023-05-08T09:31:03;42.58;;;29.30;;
40453;SDS011;26160;51.858;4.398;2023-05-08T09:41:17;32.22;;;25.90;;
40453;SDS011;26160;51.858;4.398;2023-05-08T09:43:44;30.80;;;25.40;;
40453;SDS011;26160;51.858;4.398;2023-05-08T09:46:26;29.30;;;23.33;;
40453;SDS011;26160;51.858;4.398;2023-05-08T09:48:59;28.80;;;22.00;;
40453;SDS011;26160;51.858;4.398;2023-05-08T09:51:29;26.02;;;21.52;;
40453;SDS011;26160;51.858;4.398;2023-05-08T09:54:03;25.13;;;20.60;;
40453;SDS011;26160;51.858;4.398;2023-05-08T09:56:42;25.30;;;19.70;;
40453;SDS011;26160;51.858;4.398;2023-05-08T09:59:21;30.05;;;22.90;;
40453;SDS011;26160;51.858;4.398;2023-05-08T10:01:50;33.35;;;23.67;;
40453;SDS011;26160;51.858;4.398;2023-05-08T10:04:16;32.33;;;24.90;;
40453;SDS011;26160;51.858;4.398;2023-05-08T10:06:43;30.27;;;23.98;;
40453;SDS011;26160;51.858;4.398;2023-05-08T10:09:25;36.15;;;27.17;;
40453;SDS011;26160;51.858;4.398;2023-05-08T10:11:52;39.85;;;27.67;;
40453;SDS011;26160;51.858;4.398;2023-05-08T10:14:22;35.97;;;24.90;;
40453;SDS011;26160;51.858;4.398;2023-05-08T10:16:50;28.02;;;22.42;;
40453;SDS011;26160;51.858;4.398;2023-05-08T10:19:18;28.40;;;21.75;;
40453;SDS011;26160;51.858;4.398;2023-05-08T10:21:53;26.98;;;20.50;;
40453;SDS011;26160;51.858;4.398;2023-05-08T10:24:41;24.27;;;19.33;;
40453;SDS011;26160;51.858;4.398;2023-05-08T10:27:10;20.27;;;16.83;;
40453;SDS011;26160;51.858;4.398;2023-05-08T10:29:52;25.85;;;18.30;;
40453;SDS011;26160;51.858;4.398;2023-05-08T10:32:19;27.00;;;19.00;;
40453;SDS011;26160;51.858;4.398;2023-05-08T10:34:57;24.35;;;17.45;;
40453;SDS011;26160;51.858;4.398;2023-05-08T10:37:24;22.23;;;18.23;;
40453;SDS011;26160;51.858;4.398;2023-05-08T10:39:54;29.77;;;19.58;;
40453;SDS011;26160;51.858;4.398;2023-05-08T10:42:22;27.08;;;20.23;;
40453;SDS011;26160;51.858;4.398;2023-05-08T10:44:50;33.65;;;21.73;;
40453;SDS011;26160;51.858;4.398;2023-05-08T10:47:22;36.17;;;24.60;;
40453;SDS011;26160;51.858;4.398;2023-05-08T10:52:43;37.17;;;26.52;;
40453;SDS011;26160;51.858;4.398;2023-05-08T10:55:19;32.40;;;24.85;;
40453;SDS011;26160;51.858;4.398;2023-05-08T11:00:31;36.15;;;25.25;;
40453;SDS011;26160;51.858;4.398;2023-05-08T11:03:18;29.05;;;23.30;;
40453;SDS011;26160;51.858;4.398;2023-05-08T11:05:45;27.77;;;21.33;;
40453;SDS011;26160;51.858;4.398;2023-05-08T11:08:13;24.00;;;20.05;;
40453;SDS011;26160;51.858;4.398;2023-05-08T11:10:50;27.55;;;20.00;;
40453;SDS011;26160;51.858;4.398;2023-05-08T11:13:26;24.85;;;19.92;;
40453;SDS011;26160;51.858;4.398;2023-05-08T11:16:00;25.25;;;21.02;;
40453;SDS011;26160;51.858;4.398;2023-05-08T11:18:27;25.02;;;20.15;;
40453;SDS011;26160;51.858;4.398;2023-05-08T11:20:57;24.10;;;20.88;;
40453;SDS011;26160;51.858;4.398;2023-05-08T11:23:33;26.90;;;20.48;;
40453;SDS011;26160;51.858;4.398;2023-05-08T11:26:04;24.83;;;20.77;;
40453;SDS011;26160;51.858;4.398;2023-05-08T11:28:37;29.17;;;24.23;;
40453;SDS011;26160;51.858;4.398;2023-05-08T11:31:21;30.20;;;24.73;;
40453;SDS011;26160;51.858;4.398;2023-05-08T11:33:47;28.73;;;24.08;;
40453;SDS011;26160;51.858;4.398;2023-05-08T11:36:17;32.88;;;25.30;;
40453;SDS011;26160;51.858;4.398;2023-05-08T11:39:06;35.70;;;26.38;;
40453;SDS011;26160;51.858;4.398;2023-05-08T11:41:34;36.42;;;27.10;;
40453;SDS011;26160;51.858;4.398;2023-05-08T11:49:16;46.20;;;30.85;;
40453;SDS011;26160;51.858;4.398;2023-05-08T11:51:50;41.97;;;29.60;;
40453;SDS011;26160;51.858;4.398;2023-05-08T11:54:22;41.28;;;27.05;;
40453;SDS011;26160;51.858;4.398;2023-05-08T11:56:52;44.88;;;28.05;;
40453;SDS011;26160;51.858;4.398;2023-05-08T11:59:19;47.33;;;30.50;;
40453;SDS011;26160;51.858;4.398;2023-05-08T12:01:49;48.53;;;31.08;;
40453;SDS011;26160;51.858;4.398;2023-05-08T12:04:15;53.63;;;33.20;;
40453;SDS011;26160;51.858;4.398;2023-05-08T12:06:42;53.38;;;31.73;;
40453;SDS011;26160;51.858;4.398;2023-05-08T12:09:10;72.45;;;43.63;;
40453;SDS011;26160;51.858;4.398;2023-05-08T12:11:37;85.65;;;48.47;;
40453;SDS011;26160;51.858;4.398;2023-05-08T12:14:05;87.18;;;49.80;;
40453;SDS011;26160;51.858;4.398;2023-05-08T12:16:34;123.95;;;64.93;;
40453;SDS011;26160;51.858;4.398;2023-05-08T12:19:10;156.32;;;77.60;;
40453;SDS011;26160;51.858;4.398;2023-05-08T12:21:37;154.60;;;77.85;;
40453;SDS011;26160;51.858;4.398;2023-05-08T12:24:04;192.70;;;89.88;;
40453;SDS011;26160;51.858;4.398;2023-05-08T12:26:35;186.40;;;88.72;;
40453;SDS011;26160;51.858;4.398;2023-05-08T12:29:05;176.25;;;83.50;;
40453;SDS011;26160;51.858;4.398;2023-05-08T12:31:33;189.13;;;89.20;;
40453;SDS011;26160;51.858;4.398;2023-05-08T12:34:02;188.80;;;89.95;;
40453;SDS011;26160;51.858;4.398;2023-05-08T12:36:33;200.93;;;91.45;;
40453;SDS011;26160;51.858;4.398;2023-05-08T12:39:13;213.25;;;92.88;;
40453;SDS011;26160;51.858;4.398;2023-05-08T12:41:50;192.82;;;87.50;;
40453;SDS011;26160;51.858;4.398;2023-05-08T12:44:24;187.90;;;88.35;;
40453;SDS011;26160;51.858;4.398;2023-05-08T12:46:51;177.55;;;86.20;;
40453;SDS011;26160;51.858;4.398;2023-05-08T12:49:29;191.68;;;88.55;;
40453;SDS011;26160;51.858;4.398;2023-05-08T12:52:14;188.50;;;87.20;;
40453;SDS011;26160;51.858;4.398;2023-05-08T12:54:46;192.50;;;86.05;;
40453;SDS011;26160;51.858;4.398;2023-05-08T12:57:14;200.57;;;88.90;;
40453;SDS011;26160;51.858;4.398;2023-05-08T12:59:42;186.55;;;86.47;;
40453;SDS011;26160;51.858;4.398;2023-05-08T13:02:16;166.57;;;80.25;;
40453;SDS011;26160;51.858;4.398;2023-05-08T13:04:43;158.07;;;72.28;;
40453;SDS011;26160;51.858;4.398;2023-05-08T13:07:09;142.63;;;68.50;;
40453;SDS011;26160;51.858;4.398;2023-05-08T13:09:36;136.93;;;67.03;;
40453;SDS011;26160;51.858;4.398;2023-05-08T13:12:03;138.60;;;68.03;;
40453;SDS011;26160;51.858;4.398;2023-05-08T13:14:31;127.82;;;66.63;;
40453;SDS011;26160;51.858;4.398;2023-05-08T13:16:57;115.78;;;62.42;;
40453;SDS011;26160;51.858;4.398;2023-05-08T13:19:25;106.53;;;60.53;;
40453;SDS011;26160;51.858;4.398;2023-05-08T13:21:52;115.93;;;61.63;;
40453;SDS011;26160;51.858;4.398;2023-05-08T13:24:18;108.70;;;62.20;;
40453;SDS011;26160;51.858;4.398;2023-05-08T13:32:14;97.25;;;53.70;;
40453;SDS011;26160;51.858;4.398;2023-05-08T13:34:46;93.85;;;54.38;;
40453;SDS011;26160;51.858;4.398;2023-05-08T13:37:12;89.50;;;53.88;;
40453;SDS011;26160;51.858;4.398;2023-05-08T13:39:38;76.35;;;47.67;;
40453;SDS011;26160;51.858;4.398;2023-05-08T13:42:04;75.10;;;46.22;;
40453;SDS011;26160;51.858;4.398;2023-05-08T13:44:41;74.38;;;46.45;;
40453;SDS011;26160;51.858;4.398;2023-05-08T13:47:08;74.22;;;44.45;;
40453;SDS011;26160;51.858;4.398;2023-05-08T13:49:34;58.67;;;38.88;;
40453;SDS011;26160;51.858;4.398;2023-05-08T13:54:30;67.35;;;42.38;;
40453;SDS011;26160;51.858;4.398;2023-05-08T13:57:12;54.63;;;37.85;;
40453;SDS011;26160;51.858;4.398;2023-05-08T14:02:19;75.80;;;44.50;;
40453;SDS011;26160;51.858;4.398;2023-05-08T14:04:46;70.43;;;45.28;;
40453;SDS011;26160;51.858;4.398;2023-05-08T14:07:13;75.65;;;46.30;;
40453;SDS011;26160;51.858;4.398;2023-05-08T14:09:40;74.60;;;47.13;;
40453;SDS011;26160;51.858;4.398;2023-05-08T14:12:07;72.43;;;44.30;;
40453;SDS011;26160;51.858;4.398;2023-05-08T14:14:39;69.15;;;43.05;;
40453;SDS011;26160;51.858;4.398;2023-05-08T14:19:32;69.57;;;42.83;;
40453;SDS011;26160;51.858;4.398;2023-05-08T14:21:58;71.55;;;42.85;;
40453;SDS011;26160;51.858;4.398;2023-05-08T14:24:25;68.75;;;43.35;;
40453;SDS011;26160;51.858;4.398;2023-05-08T14:26:52;65.53;;;42.45;;
40453;SDS011;26160;51.858;4.398;2023-05-08T14:29:18;64.03;;;40.78;;
40453;SDS011;26160;51.858;4.398;2023-05-08T14:31:44;57.78;;;37.60;;
40453;SDS011;26160;51.858;4.398;2023-05-08T14:34:10;62.60;;;38.08;;
40453;SDS011;26160;51.858;4.398;2023-05-08T14:36:36;50.33;;;34.03;;
40453;SDS011;26160;51.858;4.398;2023-05-08T14:39:03;49.03;;;33.25;;
40453;SDS011;26160;51.858;4.398;2023-05-08T14:41:33;49.20;;;32.17;;
40453;SDS011;26160;51.858;4.398;2023-05-08T14:43:59;49.80;;;32.40;;
40453;SDS011;26160;51.858;4.398;2023-05-08T14:46:25;49.78;;;33.25;;
40453;SDS011;26160;51.858;4.398;2023-05-08T14:48:51;46.40;;;32.03;;
40453;SDS011;26160;51.858;4.398;2023-05-08T14:51:17;44.90;;;30.77;;
40453;SDS011;26160;51.858;4.398;2023-05-08T14:53:44;42.35;;;28.40;;
40453;SDS011;26160;51.858;4.398;2023-05-08T14:56:11;46.28;;;32.72;;
40453;SDS011;26160;51.858;4.398;2023-05-08T14:58:41;44.90;;;32.67;;
40453;SDS011;26160;51.858;4.398;2023-05-08T15:01:08;45.65;;;33.78;;
40453;SDS011;26160;51.858;4.398;2023-05-08T15:03:48;53.25;;;35.85;;
40453;SDS011;26160;51.858;4.398;2023-05-08T15:06:18;49.53;;;37.03;;
40453;SDS011;26160;51.858;4.398;2023-05-08T15:08:47;50.70;;;35.97;;
40453;SDS011;26160;51.858;4.398;2023-05-08T15:11:13;53.58;;;39.85;;
40453;SDS011;26160;51.858;4.398;2023-05-08T15:13:47;51.42;;;39.33;;
40453;SDS011;26160;51.858;4.398;2023-05-08T15:16:13;50.75;;;38.00;;
40453;SDS011;26160;51.858;4.398;2023-05-08T15:18:42;51.58;;;40.47;;
40453;SDS011;26160;51.858;4.398;2023-05-08T15:21:18;55.45;;;40.97;;
40453;SDS011;26160;51.858;4.398;2023-05-08T15:26:30;55.55;;;39.88;;
40453;SDS011;26160;51.858;4.398;2023-05-08T15:41:39;54.13;;;37.88;;
40453;SDS011;26160;51.858;4.398;2023-05-08T15:44:19;56.60;;;39.28;;
40453;SDS011;26160;51.858;4.398;2023-05-08T15:46:46;51.85;;;36.17;;
40453;SDS011;26160;51.858;4.398;2023-05-08T15:49:12;43.92;;;34.25;;
40453;SDS011;26160;51.858;4.398;2023-05-08T15:54:36;37.70;;;26.45;;
40453;SDS011;26160;51.858;4.398;2023-05-08T16:07:29;28.95;;;22.00;;
40453;SDS011;26160;51.858;4.398;2023-05-08T16:10:42;30.38;;;23.63;;
40453;SDS011;26160;51.858;4.398;2023-05-08T16:32:00;28.15;;;22.00;;
40453;SDS011;26160;51.858;4.398;2023-05-08T16:34:30;23.05;;;20.40;;
40453;SDS011;26160;51.858;4.398;2023-05-08T16:36:56;21.55;;;18.77;;
40453;SDS011;26160;51.858;4.398;2023-05-08T16:39:24;19.58;;;17.27;;
40453;SDS011;26160;51.858;4.398;2023-05-08T16:41:51;19.30;;;17.23;;
40453;SDS011;26160;51.858;4.398;2023-05-08T16:44:17;19.63;;;17.20;;
40453;SDS011;26160;51.858;4.398;2023-05-08T16:46:43;25.20;;;20.50;;
40453;SDS011;26160;51.858;4.398;2023-05-08T16:49:09;25.25;;;21.52;;
40453;SDS011;26160;51.858;4.398;2023-05-08T16:51:36;27.00;;;21.08;;
40453;SDS011;26160;51.858;4.398;2023-05-08T16:54:02;29.85;;;22.50;;
40453;SDS011;26160;51.858;4.398;2023-05-08T16:56:31;27.38;;;22.10;;
40453;SDS011;26160;51.858;4.398;2023-05-08T17:01:32;24.17;;;20.35;;
40453;SDS011;26160;51.858;4.398;2023-05-08T17:03:58;27.98;;;21.92;;
40453;SDS011;26160;51.858;4.398;2023-05-08T17:06:25;31.98;;;21.48;;
40453;SDS011;26160;51.858;4.398;2023-05-08T17:11:23;26.67;;;21.02;;
40453;SDS011;26160;51.858;4.398;2023-05-08T17:13:50;26.40;;;20.95;;
40453;SDS011;26160;51.858;4.398;2023-05-08T17:16:16;25.23;;;22.23;;
40453;SDS011;26160;51.858;4.398;2023-05-08T17:18:42;27.30;;;22.48;;
40453;SDS011;26160;51.858;4.398;2023-05-08T17:21:08;28.17;;;23.08;;
40453;SDS011;26160;51.858;4.398;2023-05-08T17:23:35;26.25;;;23.02;;
40453;SDS011;26160;51.858;4.398;2023-05-08T17:26:01;26.38;;;22.42;;
40453;SDS011;26160;51.858;4.398;2023-05-08T17:28:30;29.55;;;23.73;;
40453;SDS011;26160;51.858;4.398;2023-05-08T17:30:59;28.33;;;23.85;;
40453;SDS011;26160;51.858;4.398;2023-05-08T17:33:26;27.98;;;24.40;;
40453;SDS011;26160;51.858;4.398;2023-05-08T17:35:52;29.02;;;24.70;;
40453;SDS011;26160;51.858;4.398;2023-05-08T17:38:18;30.20;;;24.48;;
40453;SDS011;26160;51.858;4.398;2023-05-08T17:40:45;28.55;;;24.90;;
40453;SDS011;26160;51.858;4.398;2023-05-08T17:43:11;29.33;;;25.13;;
40453;SDS011;26160;51.858;4.398;2023-05-08T17:45:38;29.52;;;24.92;;
40453;SDS011;26160;51.858;4.398;2023-05-08T17:48:04;32.83;;;26.45;;
40453;SDS011;26160;51.858;4.398;2023-05-08T17:50:32;34.42;;;27.08;;
40453;SDS011;26160;51.858;4.398;2023-05-08T17:52:58;34.65;;;25.80;;
40453;SDS011;26160;51.858;4.398;2023-05-08T17:55:25;32.22;;;26.63;;
40453;SDS011;26160;51.858;4.398;2023-05-08T17:57:58;34.35;;;26.92;;
40453;SDS011;26160;51.858;4.398;2023-05-08T18:00:26;33.20;;;26.35;;
40453;SDS011;26160;51.858;4.398;2023-05-08T18:03:01;33.85;;;26.65;;
40453;SDS011;26160;51.858;4.398;2023-05-08T18:05:28;32.05;;;25.83;;
40453;SDS011;26160;51.858;4.398;2023-05-08T18:07:55;32.13;;;26.27;;
40453;SDS011;26160;51.858;4.398;2023-05-08T18:10:28;32.53;;;25.48;;
40453;SDS011;26160;51.858;4.398;2023-05-08T18:12:54;31.10;;;25.08;;
40453;SDS011;26160;51.858;4.398;2023-05-08T18:15:23;35.90;;;25.83;;
40453;SDS011;26160;51.858;4.398;2023-05-08T18:17:50;37.53;;;26.70;;
40453;SDS011;26160;51.858;4.398;2023-05-08T18:20:18;31.05;;;25.88;;
40453;SDS011;26160;51.858;4.398;2023-05-08T18:22:48;32.20;;;26.48;;
40453;SDS011;26160;51.858;4.398;2023-05-08T18:25:14;39.00;;;28.58;;
40453;SDS011;26160;51.858;4.398;2023-05-08T18:27:40;34.88;;;27.85;;
40453;SDS011;26160;51.858;4.398;2023-05-08T18:30:07;36.97;;;27.80;;
40453;SDS011;26160;51.858;4.398;2023-05-08T18:32:34;34.75;;;28.67;;
40453;SDS011;26160;51.858;4.398;2023-05-08T18:35:01;34.03;;;26.95;;
40453;SDS011;26160;51.858;4.398;2023-05-08T18:37:27;36.85;;;28.27;;
40453;SDS011;26160;51.858;4.398;2023-05-08T18:39:53;35.28;;;27.20;;
40453;SDS011;26160;51.858;4.398;2023-05-08T18:42:19;35.65;;;27.83;;
40453;SDS011;26160;51.858;4.398;2023-05-08T18:44:46;35.65;;;27.20;;
40453;SDS011;26160;51.858;4.398;2023-05-08T18:47:12;35.88;;;28.08;;
40453;SDS011;26160;51.858;4.398;2023-05-08T18:49:38;33.38;;;27.42;;
40453;SDS011;26160;51.858;4.398;2023-05-08T18:52:04;38.55;;;29.17;;
40453;SDS011;26160;51.858;4.398;2023-05-08T18:54:30;36.22;;;29.65;;
40453;SDS011;26160;51.858;4.398;2023-05-08T18:56:56;36.33;;;28.60;;
40453;SDS011;26160;51.858;4.398;2023-05-08T18:59:25;42.67;;;32.30;;
40453;SDS011;26160;51.858;4.398;2023-05-08T19:01:57;39.22;;;29.25;;
40453;SDS011;26160;51.858;4.398;2023-05-08T19:04:24;42.65;;;30.63;;
40453;SDS011;26160;51.858;4.398;2023-05-08T19:06:51;39.05;;;30.70;;
40453;SDS011;26160;51.858;4.398;2023-05-08T19:09:18;42.50;;;31.98;;
40453;SDS011;26160;51.858;4.398;2023-05-08T19:11:44;42.78;;;32.45;;
40453;SDS011;26160;51.858;4.398;2023-05-08T19:14:10;39.83;;;29.30;;
40453;SDS011;26160;51.858;4.398;2023-05-08T19:16:36;39.50;;;28.88;;
40453;SDS011;26160;51.858;4.398;2023-05-08T19:19:02;39.00;;;26.90;;
40453;SDS011;26160;51.858;4.398;2023-05-08T19:21:37;39.45;;;28.38;;
40453;SDS011;26160;51.858;4.398;2023-05-08T19:24:04;37.63;;;27.63;;
40453;SDS011;26160;51.858;4.398;2023-05-08T19:26:30;38.38;;;28.58;;
40453;SDS011;26160;51.858;4.398;2023-05-08T19:28:56;39.47;;;27.17;;
40453;SDS011;26160;51.858;4.398;2023-05-08T19:31:24;40.13;;;26.33;;
40453;SDS011;26160;51.858;4.398;2023-05-08T19:33:50;39.90;;;25.67;;
40453;SDS011;26160;51.858;4.398;2023-05-08T19:36:16;37.83;;;24.73;;
40453;SDS011;26160;51.858;4.398;2023-05-08T19:38:43;35.58;;;23.58;;
40453;SDS011;26160;51.858;4.398;2023-05-08T19:41:11;36.40;;;22.35;;
40453;SDS011;26160;51.858;4.398;2023-05-08T19:43:37;32.83;;;20.05;;
40453;SDS011;26160;51.858;4.398;2023-05-08T19:46:03;30.10;;;18.77;;
40453;SDS011;26160;51.858;4.398;2023-05-08T19:48:31;30.10;;;17.75;;